createdAt,value
2023-10-25T00:00:22.283Z,8.52
2023-10-25T00:02:50.154Z,8.50
2023-10-25T00:05:17.221Z,8.48
2023-10-25T00:07:44.317Z,8.46
2023-10-25T00:10:11.806Z,8.45
2023-10-25T00:12:39.020Z,8.43
2023-10-25T00:15:07.325Z,8.40
2023-10-25T00:17:34.494Z,8.36
2023-10-25T00:20:01.644Z,8.32
2023-10-25T00:22:28.636Z,8.31
2023-10-25T00:24:55.673Z,8.28
2023-10-25T00:27:22.818Z,8.27
2023-10-25T00:29:49.875Z,8.25
2023-10-25T00:32:16.937Z,8.23
2023-10-25T00:34:44.033Z,8.19
2023-10-25T00:37:11.142Z,8.15
2023-10-25T00:39:38.191Z,8.14
2023-10-25T00:42:05.876Z,8.12
2023-10-25T00:44:33.764Z,8.08
2023-10-25T00:47:02.611Z,8.06
2023-10-25T00:49:30.174Z,8.05
2023-10-25T00:51:58.012Z,8.01
2023-10-25T00:54:26.112Z,7.98
2023-10-25T00:56:56.996Z,7.97
2023-10-25T00:59:24.538Z,7.95
2023-10-25T01:01:51.921Z,7.94
2023-10-25T01:04:19.759Z,7.92
2023-10-25T01:06:46.861Z,7.89
2023-10-25T01:09:14.154Z,7.86
2023-10-25T01:11:42.791Z,7.84
2023-10-25T01:14:10.029Z,7.84
2023-10-25T01:16:37.180Z,7.82
2023-10-25T01:19:04.583Z,7.81
2023-10-25T01:21:32.581Z,7.80
2023-10-25T01:23:59.607Z,7.78
2023-10-25T01:26:26.664Z,7.76
2023-10-25T01:28:53.830Z,7.76
2023-10-25T01:31:21.258Z,7.74
2023-10-25T01:33:52.337Z,7.74
2023-10-25T01:36:20.171Z,7.73
2023-10-25T01:38:47.132Z,7.74
2023-10-25T01:41:17.344Z,7.72
2023-10-25T01:43:44.866Z,7.72
2023-10-25T01:46:12.077Z,7.71
2023-10-25T01:48:39.330Z,7.71
2023-10-25T01:51:09.882Z,7.70
2023-10-25T01:53:37.480Z,7.70
2023-10-25T01:56:05.865Z,7.69
2023-10-25T01:58:32.956Z,7.70
2023-10-25T02:01:06.396Z,7.71
2023-10-25T02:03:33.616Z,7.69
2023-10-25T02:06:00.796Z,7.69
2023-10-25T02:08:27.905Z,7.70
2023-10-25T02:10:54.915Z,7.69
2023-10-25T02:13:22.252Z,7.69
2023-10-25T02:15:49.511Z,7.69
2023-10-25T02:18:16.774Z,7.69
2023-10-25T02:20:43.862Z,7.70
2023-10-25T02:23:10.878Z,7.68
2023-10-25T02:25:37.902Z,7.66
2023-10-25T02:28:05.272Z,7.65
2023-10-25T02:30:32.649Z,7.66
2023-10-25T02:32:59.754Z,7.65
2023-10-25T02:35:27.103Z,7.65
2023-10-25T02:37:54.289Z,7.62
2023-10-25T02:40:21.362Z,7.61
2023-10-25T02:42:48.926Z,7.59
2023-10-25T02:45:16.098Z,7.57
2023-10-25T02:47:43.176Z,7.56
2023-10-25T02:50:10.774Z,7.56
2023-10-25T02:52:37.793Z,7.55
2023-10-25T02:55:05.352Z,7.53
2023-10-25T02:57:32.447Z,7.51
2023-10-25T02:59:59.500Z,7.51
2023-10-25T03:02:26.570Z,7.51
2023-10-25T03:04:53.581Z,7.51
2023-10-25T03:07:20.612Z,7.50
2023-10-25T03:09:47.629Z,7.51
2023-10-25T03:12:14.666Z,7.52
2023-10-25T03:14:41.720Z,7.53
2023-10-25T03:17:08.794Z,7.54
2023-10-25T03:19:35.842Z,7.53
2023-10-25T03:22:04.277Z,7.53
2023-10-25T03:24:31.416Z,7.55
2023-10-25T03:27:00.069Z,7.54
2023-10-25T03:29:27.089Z,7.54
2023-10-25T03:31:59.179Z,7.56
2023-10-25T03:34:26.324Z,7.56
2023-10-25T03:36:53.533Z,7.56
2023-10-25T03:39:20.661Z,7.57
2023-10-25T03:41:47.786Z,7.57
2023-10-25T03:44:14.964Z,7.58
2023-10-25T03:46:42.022Z,7.56
2023-10-25T03:49:09.240Z,7.56
2023-10-25T03:51:38.572Z,7.54
2023-10-25T03:54:05.811Z,7.52
2023-10-25T03:56:33.433Z,7.52
2023-10-25T03:59:00.443Z,7.51
2023-10-25T04:01:27.472Z,7.55
2023-10-25T04:03:54.759Z,7.58
2023-10-25T04:06:21.878Z,7.62
2023-10-25T04:08:48.896Z,7.66
2023-10-25T04:11:15.880Z,7.71
2023-10-25T04:13:42.875Z,7.75
2023-10-25T04:16:12.782Z,7.75
2023-10-25T04:18:40.010Z,7.79
2023-10-25T04:21:12.955Z,7.83
2023-10-25T04:23:40.884Z,7.87
2023-10-25T04:26:12.748Z,7.92
2023-10-25T04:28:43.639Z,7.95
2023-10-25T04:31:12.665Z,7.99
2023-10-25T04:33:42.852Z,8.00
2023-10-25T04:36:10.239Z,8.03
2023-10-25T04:38:37.626Z,8.05
2023-10-25T04:41:07.686Z,8.06
2023-10-25T04:43:34.749Z,8.08
2023-10-25T04:46:02.016Z,8.13
2023-10-25T04:48:29.061Z,8.23
2023-10-25T04:50:56.410Z,8.31
2023-10-25T04:53:23.713Z,8.37
2023-10-25T04:55:51.076Z,8.45
2023-10-25T04:58:20.408Z,8.48
2023-10-25T05:00:47.743Z,8.52
2023-10-25T05:03:15.359Z,8.53
2023-10-25T05:05:50.442Z,8.60
2023-10-25T05:08:17.809Z,8.65
2023-10-25T05:10:53.259Z,8.68
2023-10-25T05:13:20.773Z,8.69
2023-10-25T05:15:48.124Z,8.69
2023-10-25T05:18:15.479Z,8.70
2023-10-25T05:20:43.066Z,8.77
2023-10-25T05:23:11.934Z,8.78
2023-10-25T05:25:39.535Z,8.77
2023-10-25T05:28:07.320Z,8.72
2023-10-25T05:30:34.863Z,8.68
2023-10-25T05:33:07.747Z,8.61
2023-10-25T05:35:35.294Z,8.55
2023-10-25T05:38:04.729Z,8.52
2023-10-25T05:40:32.172Z,8.48
2023-10-25T05:43:04.187Z,8.45
2023-10-25T05:45:31.243Z,8.43
2023-10-25T05:47:58.590Z,8.40
2023-10-25T05:50:26.287Z,8.37
2023-10-25T05:52:53.767Z,8.34
2023-10-25T05:55:21.363Z,8.32
2023-10-25T05:57:48.865Z,8.30
2023-10-25T06:00:16.732Z,8.27
2023-10-25T06:02:45.343Z,8.28
2023-10-25T06:05:14.612Z,8.28
2023-10-25T06:07:43.438Z,8.28
2023-10-25T06:10:11.725Z,8.30
2023-10-25T06:12:42.103Z,8.32
2023-10-25T06:15:11.167Z,8.34
2023-10-25T06:17:38.923Z,8.34
2023-10-25T06:20:06.933Z,8.35
2023-10-25T06:22:34.183Z,8.35
2023-10-25T06:25:01.265Z,8.34
2023-10-25T06:27:28.312Z,8.34
2023-10-25T06:29:55.477Z,8.34
2023-10-25T06:32:22.497Z,8.35
2023-10-25T06:34:49.521Z,8.35
2023-10-25T06:37:17.115Z,8.38
2023-10-25T06:39:44.700Z,8.38
2023-10-25T06:42:12.926Z,8.40
2023-10-25T06:44:41.439Z,8.40
2023-10-25T06:47:10.985Z,8.45
2023-10-25T06:49:38.559Z,8.46
2023-10-25T06:52:06.260Z,8.49
2023-10-25T06:54:33.797Z,8.53
2023-10-25T06:57:01.396Z,8.60
2023-10-25T06:59:28.761Z,8.62
2023-10-25T07:02:26.511Z,8.65
2023-10-25T07:05:12.585Z,8.69
2023-10-25T07:07:42.304Z,8.70
2023-10-25T07:10:10.197Z,8.73
2023-10-25T07:12:37.585Z,8.74
2023-10-25T07:15:05.034Z,8.79
2023-10-25T07:17:32.034Z,8.78
2023-10-25T07:20:02.144Z,8.79
2023-10-25T07:22:29.752Z,8.79
2023-10-25T07:24:57.190Z,8.80
2023-10-25T07:27:25.089Z,8.81
2023-10-25T07:29:52.263Z,8.81
2023-10-25T07:32:19.559Z,8.81
2023-10-25T07:34:46.890Z,8.81
2023-10-25T07:37:13.998Z,8.82
2023-10-25T07:39:41.601Z,8.82
2023-10-25T07:42:08.979Z,8.83
2023-10-25T07:44:36.262Z,8.81
2023-10-25T07:47:04.681Z,8.84
2023-10-25T07:49:38.065Z,8.85
2023-10-25T07:52:05.380Z,8.86
2023-10-25T07:54:32.374Z,8.91
2023-10-25T07:59:29.263Z,8.96
2023-10-25T08:01:58.526Z,8.98
2023-10-25T08:04:26.540Z,9.02
2023-10-25T08:06:54.417Z,9.04
2023-10-25T08:09:21.578Z,9.07
2023-10-25T08:11:48.705Z,9.10
2023-10-25T08:14:15.745Z,9.13
2023-10-25T08:16:43.666Z,9.16
2023-10-25T08:19:10.806Z,9.21
2023-10-25T08:21:38.841Z,9.27
2023-10-25T08:24:07.033Z,9.32
2023-10-25T08:26:40.726Z,9.36
2023-10-25T08:29:09.434Z,9.38
2023-10-25T08:31:36.596Z,9.40
2023-10-25T08:34:04.112Z,9.44
2023-10-25T08:36:34.113Z,9.49
2023-10-25T08:39:01.184Z,9.52
2023-10-25T08:41:28.784Z,9.55
2023-10-25T08:43:57.137Z,9.56
2023-10-25T08:46:26.092Z,9.59
2023-10-25T08:48:54.439Z,9.66
2023-10-25T08:51:21.886Z,9.72
2023-10-25T08:53:52.507Z,9.75
2023-10-25T08:56:20.120Z,9.75
2023-10-25T08:58:47.278Z,9.78
2023-10-25T09:01:14.485Z,9.81
2023-10-25T09:03:43.972Z,9.88
2023-10-25T09:06:23.003Z,9.89
2023-10-25T09:09:09.142Z,9.95
2023-10-25T09:11:44.358Z,9.98
2023-10-25T09:14:14.697Z,10.05
2023-10-25T09:16:44.635Z,10.07
2023-10-25T09:19:12.862Z,10.10
2023-10-25T09:21:39.914Z,10.14
2023-10-25T09:24:10.621Z,10.16
2023-10-25T09:26:42.530Z,10.15
2023-10-25T09:29:14.026Z,10.16
2023-10-25T09:31:41.392Z,10.12
2023-10-25T09:34:11.170Z,10.09
2023-10-25T09:36:38.826Z,10.09
2023-10-25T09:39:06.290Z,10.06
2023-10-25T09:41:41.911Z,10.07
2023-10-25T09:44:20.773Z,10.07
2023-10-25T09:46:49.194Z,10.09
2023-10-25T09:49:18.248Z,10.13
2023-10-25T09:52:07.033Z,10.17
2023-10-25T09:54:46.744Z,10.19
2023-10-25T09:57:15.921Z,10.23
2023-10-25T09:59:45.634Z,10.28
2023-10-25T10:02:30.896Z,10.26
2023-10-25T10:05:10.185Z,10.29
2023-10-25T10:08:16.302Z,10.35
2023-10-25T10:11:10.275Z,10.35
2023-10-25T10:13:37.393Z,10.39
2023-10-25T10:16:10.697Z,10.42
2023-10-25T10:18:47.036Z,10.41
2023-10-25T10:21:16.863Z,10.43
2023-10-25T10:23:52.484Z,10.44
2023-10-25T10:26:48.878Z,10.43
2023-10-25T10:29:34.767Z,10.43
2023-10-25T10:32:07.674Z,10.42
2023-10-25T10:34:58.732Z,10.40
2023-10-25T10:37:32.915Z,10.35
2023-10-25T10:40:04.531Z,10.27
2023-10-25T10:42:37.188Z,10.17
2023-10-25T10:45:09.099Z,10.12
2023-10-25T10:50:20.606Z,10.01
2023-10-25T10:52:51.309Z,9.99
2023-10-25T10:55:23.945Z,9.97
2023-10-25T10:58:07.531Z,9.95
2023-10-25T11:00:35.809Z,9.93
2023-10-25T11:03:09.152Z,9.93
2023-10-25T11:05:38.749Z,9.92
2023-10-25T11:08:15.338Z,9.92
2023-10-25T11:10:42.948Z,9.90
2023-10-25T11:13:11.283Z,9.90
2023-10-25T11:15:39.455Z,9.89
2023-10-25T11:18:09.982Z,9.92
2023-10-25T11:20:37.293Z,9.92
2023-10-25T11:23:05.756Z,9.91
2023-10-25T11:25:33.187Z,9.93
2023-10-25T11:28:00.300Z,9.93
2023-10-25T11:30:27.760Z,9.96
2023-10-25T11:32:55.577Z,10.00
2023-10-25T11:35:25.144Z,10.03
2023-10-25T11:37:54.099Z,10.04
2023-10-25T11:40:21.637Z,10.03
2023-10-25T11:42:49.802Z,10.02
2023-10-25T11:45:19.181Z,10.06
2023-10-25T11:47:49.509Z,10.06
2023-10-25T11:50:16.696Z,10.07
2023-10-25T11:52:43.795Z,10.06
2023-10-25T11:55:11.555Z,10.04
2023-10-25T11:57:40.436Z,10.07
2023-10-25T12:00:11.407Z,10.08
2023-10-25T12:02:43.161Z,10.06
2023-10-25T12:05:11.438Z,10.07
2023-10-25T12:07:38.642Z,10.07
2023-10-25T12:10:06.363Z,10.07
2023-10-25T12:12:34.562Z,10.08
2023-10-25T12:15:01.668Z,10.09
2023-10-25T12:17:28.838Z,10.09
2023-10-25T12:19:55.940Z,10.12
2023-10-25T12:22:23.795Z,10.10
2023-10-25T12:24:50.954Z,10.12
2023-10-25T12:27:18.300Z,10.19
2023-10-25T12:29:45.965Z,10.17
2023-10-25T12:32:13.099Z,10.22
2023-10-25T12:34:41.873Z,10.20
2023-10-25T12:37:09.975Z,10.20
2023-10-25T12:39:37.072Z,10.20
2023-10-25T12:42:04.365Z,10.16
2023-10-25T12:44:31.508Z,10.18
2023-10-25T12:46:58.509Z,10.22
2023-10-25T12:49:25.587Z,10.25
2023-10-25T12:51:52.637Z,10.29
2023-10-25T12:54:19.676Z,10.29
2023-10-25T12:56:46.681Z,10.30
2023-10-25T12:59:14.192Z,10.29
2023-10-25T13:01:45.639Z,10.28
2023-10-25T13:04:20.324Z,10.25
2023-10-25T13:06:48.962Z,10.26
2023-10-25T13:09:17.886Z,10.28
2023-10-25T13:11:45.488Z,10.25
2023-10-25T13:14:13.449Z,10.21
2023-10-25T13:16:40.749Z,10.22
2023-10-25T13:19:07.780Z,10.21
2023-10-25T13:21:35.203Z,10.21
2023-10-25T13:24:02.323Z,10.22
2023-10-25T13:26:29.537Z,10.24
2023-10-25T13:29:00.832Z,10.26
2023-10-25T13:31:28.129Z,10.26
2023-10-25T13:33:55.437Z,10.23
2023-10-25T13:36:22.504Z,10.26
2023-10-25T13:38:49.582Z,10.25
2023-10-25T13:41:16.881Z,10.26
2023-10-25T13:43:43.976Z,10.27
2023-10-25T13:46:11.052Z,10.29
2023-10-25T13:48:39.733Z,10.30
2023-10-25T13:51:06.919Z,10.31
2023-10-25T13:53:34.034Z,10.33
2023-10-25T13:56:02.502Z,10.32
2023-10-25T13:58:34.010Z,10.35
2023-10-25T14:01:04.429Z,10.39
2023-10-25T14:03:31.829Z,10.39
2023-10-25T14:06:04.362Z,10.39
2023-10-25T14:08:32.767Z,10.40
2023-10-25T14:11:00.047Z,10.44
2023-10-25T14:15:57.866Z,10.45
2023-10-25T14:18:25.174Z,10.44
2023-10-25T14:20:52.405Z,10.45
2023-10-25T14:23:19.443Z,10.43
2023-10-25T14:25:47.802Z,10.44
2023-10-25T14:28:14.932Z,10.44
2023-10-25T14:30:44.458Z,10.43
2023-10-25T14:33:12.218Z,10.41
2023-10-25T14:35:40.073Z,10.41
2023-10-25T14:38:08.240Z,10.43
2023-10-25T14:40:42.703Z,10.41
2023-10-25T14:43:11.345Z,10.40
2023-10-25T14:45:38.901Z,10.43
2023-10-25T14:48:10.872Z,10.43
2023-10-25T14:50:40.621Z,10.43
2023-10-25T14:53:08.569Z,10.44
2023-10-25T14:55:37.303Z,10.43
2023-10-25T14:58:05.990Z,10.43
2023-10-25T15:00:36.253Z,10.43
2023-10-25T15:03:03.455Z,10.43
2023-10-25T15:05:42.804Z,10.41
2023-10-25T15:08:09.909Z,10.41
2023-10-25T15:10:37.018Z,10.39
2023-10-25T15:13:04.318Z,10.38
2023-10-25T15:15:31.540Z,10.40
2023-10-25T15:17:59.229Z,10.40
2023-10-25T15:20:26.608Z,10.40
2023-10-25T15:22:54.261Z,10.38
2023-10-25T15:25:24.711Z,10.38
2023-10-25T15:27:52.217Z,10.38
2023-10-25T15:30:19.584Z,10.37
2023-10-25T15:32:46.929Z,10.38
2023-10-25T15:35:14.602Z,10.39
2023-10-25T15:37:41.665Z,10.36
2023-10-25T15:40:17.363Z,10.35
2023-10-25T15:42:47.662Z,10.35
2023-10-25T15:45:16.932Z,10.34
2023-10-25T15:47:45.382Z,10.33
2023-10-25T15:50:12.603Z,10.32
2023-10-25T15:52:40.425Z,10.31
2023-10-25T15:55:10.753Z,10.30
2023-10-25T15:57:37.765Z,10.29
2023-10-25T16:00:05.818Z,10.27
2023-10-25T16:02:33.050Z,10.28
2023-10-25T16:05:00.179Z,10.25
2023-10-25T16:07:27.112Z,10.25
2023-10-25T16:09:54.136Z,10.23
2023-10-25T16:12:21.251Z,10.21
2023-10-25T16:14:48.280Z,10.22
2023-10-25T16:17:15.425Z,10.23
2023-10-25T16:19:42.716Z,10.22
2023-10-25T16:22:10.039Z,10.20
2023-10-25T16:24:37.034Z,10.20
2023-10-25T16:27:04.768Z,10.18
2023-10-25T16:29:34.694Z,10.20
2023-10-25T16:32:01.855Z,10.18
2023-10-25T16:34:29.277Z,10.18
2023-10-25T16:37:04.866Z,10.18
2023-10-25T16:39:33.230Z,10.15
2023-10-25T16:42:00.745Z,10.14
2023-10-25T16:44:28.297Z,10.15
2023-10-25T16:46:55.282Z,10.14
2023-10-25T16:49:22.870Z,10.12
2023-10-25T16:51:49.975Z,10.13
2023-10-25T16:54:17.010Z,10.13
2023-10-25T16:56:45.108Z,10.14
2023-10-25T16:59:12.275Z,10.12
2023-10-25T17:01:39.690Z,10.12
2023-10-25T17:04:07.043Z,10.11
2023-10-25T17:06:34.652Z,10.10
2023-10-25T17:09:01.768Z,10.12
2023-10-25T17:11:29.666Z,10.08
2023-10-25T17:13:57.128Z,10.09
2023-10-25T17:16:24.593Z,10.10
2023-10-25T17:18:53.289Z,10.10
2023-10-25T17:21:20.465Z,10.08
2023-10-25T17:23:47.638Z,10.08
2023-10-25T17:26:14.873Z,10.08
2023-10-25T17:28:42.042Z,10.06
2023-10-25T17:31:09.126Z,10.05
2023-10-25T17:33:36.218Z,10.06
2023-10-25T17:36:06.272Z,10.05
2023-10-25T17:38:34.177Z,10.03
2023-10-25T17:41:02.681Z,10.05
2023-10-25T17:43:29.863Z,10.04
2023-10-25T17:48:29.032Z,10.02
2023-10-25T17:50:56.919Z,10.01
2023-10-25T17:53:24.312Z,10.01
2023-10-25T17:55:51.486Z,10.00
2023-10-25T17:58:20.070Z,10.00
2023-10-25T18:00:48.392Z,10.00
2023-10-25T18:03:15.756Z,10.00
2023-10-25T18:05:43.901Z,9.99
2023-10-25T18:08:14.422Z,9.97
2023-10-25T18:10:43.638Z,9.98
2023-10-25T18:13:14.727Z,10.00
2023-10-25T18:15:44.955Z,10.00
2023-10-25T18:18:13.246Z,9.97
2023-10-25T18:20:40.358Z,9.98
2023-10-25T18:23:07.448Z,10.00
2023-10-25T18:25:34.466Z,10.00
2023-10-25T18:28:02.367Z,9.98
2023-10-25T18:32:00.012Z,10.01
2023-10-25T18:33:21.015Z,10.01
2023-10-25T18:35:49.828Z,10.00
2023-10-25T18:38:18.491Z,10.00
2023-10-25T18:40:56.279Z,10.00
2023-10-25T18:43:26.319Z,10.01
2023-10-25T18:46:10.510Z,10.00
2023-10-25T18:48:38.325Z,9.98
2023-10-25T18:51:13.159Z,9.98
2023-10-25T18:53:40.816Z,10.02
2023-10-25T18:56:08.190Z,10.02
2023-10-25T18:58:35.290Z,10.02
2023-10-25T19:01:17.618Z,10.01
2023-10-25T19:03:51.423Z,10.03
2023-10-25T19:06:30.531Z,10.04
2023-10-25T19:09:01.020Z,10.03
2023-10-25T19:11:32.344Z,10.05
2023-10-25T19:14:00.418Z,10.07
2023-10-25T19:16:27.622Z,10.08
2023-10-25T19:18:55.831Z,10.08
2023-10-25T19:21:22.912Z,10.07
2023-10-25T19:23:56.353Z,10.03
2023-10-25T19:26:27.669Z,10.04
2023-10-25T19:29:02.303Z,10.04
2023-10-25T19:31:34.334Z,10.03
2023-10-25T19:34:04.446Z,10.05
2023-10-25T19:36:31.681Z,10.07
2023-10-25T19:39:09.029Z,10.07
2023-10-25T19:41:36.284Z,10.06
2023-10-25T19:44:05.823Z,10.04
2023-10-25T19:46:36.307Z,10.06
2023-10-25T19:49:07.261Z,10.06
2023-10-25T19:51:37.580Z,10.07
2023-10-25T19:54:05.151Z,10.08
2023-10-25T19:56:33.641Z,10.08
2023-10-25T19:59:00.709Z,10.10
2023-10-25T20:01:27.702Z,10.11
2023-10-25T20:04:14.015Z,10.13
2023-10-25T20:06:41.068Z,10.14
2023-10-25T20:09:10.846Z,10.13
2023-10-25T20:11:37.955Z,10.13
2023-10-25T20:14:04.985Z,10.09
2023-10-25T20:16:32.578Z,10.09
2023-10-25T20:18:59.593Z,10.08
2023-10-25T20:21:26.701Z,10.06
2023-10-25T20:24:01.986Z,10.05
2023-10-25T20:26:34.258Z,10.05
2023-10-25T20:29:03.121Z,10.04
2023-10-25T20:31:30.361Z,10.06
2023-10-25T20:33:57.561Z,10.08
2023-10-25T20:36:24.748Z,10.07
2023-10-25T20:38:51.816Z,10.09
2023-10-25T20:41:18.959Z,10.10
2023-10-25T20:43:45.995Z,10.09
2023-10-25T20:46:13.017Z,10.08
2023-10-25T20:48:40.555Z,10.06
2023-10-25T20:51:07.591Z,10.05
2023-10-25T20:53:35.911Z,10.04
2023-10-25T20:56:03.128Z,10.04
2023-10-25T20:58:30.348Z,10.02
2023-10-25T21:00:57.300Z,10.05
2023-10-25T21:03:24.451Z,10.01
2023-10-25T21:05:56.331Z,10.01
2023-10-25T21:08:23.626Z,10.01
2023-10-25T21:10:51.851Z,9.99
2023-10-25T21:13:19.946Z,9.96
2023-10-25T21:15:48.691Z,9.93
2023-10-25T21:18:16.007Z,9.91
2023-10-25T21:20:47.855Z,9.90
2023-10-25T21:23:16.200Z,9.86
2023-10-25T21:25:43.870Z,9.86
2023-10-25T21:28:11.243Z,9.86
2023-10-25T21:30:39.647Z,9.88
2023-10-25T21:33:08.383Z,9.87
2023-10-25T21:35:37.070Z,9.88
2023-10-25T21:38:04.225Z,9.87
2023-10-25T21:40:31.455Z,9.86
2023-10-25T21:42:58.609Z,9.87
2023-10-25T21:45:25.842Z,9.87
2023-10-25T21:47:53.108Z,9.89
2023-10-25T21:50:20.517Z,9.87
2023-10-25T21:52:47.611Z,9.86
2023-10-25T21:55:14.821Z,9.87
2023-10-25T21:59:44.832Z,9.88
2023-10-25T22:00:31.438Z,9.89
2023-10-25T22:02:58.727Z,9.91
2023-10-25T22:05:26.672Z,9.94
2023-10-25T22:07:53.767Z,9.95
2023-10-25T22:10:21.084Z,9.98
2023-10-25T22:12:48.122Z,9.99
2023-10-25T22:15:15.234Z,10.00
2023-10-25T22:17:43.784Z,9.99
2023-10-25T22:20:11.806Z,9.99
2023-10-25T22:22:38.953Z,10.00
2023-10-25T22:25:06.753Z,10.01
2023-10-25T22:27:33.831Z,10.02
2023-10-25T22:30:00.890Z,10.02
2023-10-25T22:32:27.997Z,10.02
2023-10-25T22:34:56.412Z,10.02
2023-10-25T22:37:24.155Z,10.02
2023-10-25T22:39:53.992Z,10.03
2023-10-25T22:42:21.536Z,10.02
2023-10-25T22:44:48.565Z,9.98
2023-10-25T22:47:15.730Z,9.98
2023-10-25T22:49:42.702Z,9.99
2023-10-25T22:52:09.676Z,9.96
2023-10-25T22:54:36.631Z,9.94
2023-10-25T22:57:07.481Z,9.94
2023-10-25T22:59:37.873Z,9.97
2023-10-25T23:02:05.548Z,9.95
2023-10-25T23:04:34.507Z,9.97
2023-10-25T23:07:01.642Z,9.94
2023-10-25T23:09:28.728Z,9.98
2023-10-25T23:11:57.821Z,9.95
2023-10-25T23:14:25.003Z,9.98
2023-10-25T23:16:52.000Z,9.97
2023-10-25T23:19:19.231Z,9.97
2023-10-25T23:21:46.936Z,9.98
2023-10-25T23:24:14.133Z,9.98
2023-10-25T23:26:41.276Z,9.97
2023-10-25T23:29:08.241Z,9.97
2023-10-25T23:31:37.855Z,9.98
2023-10-25T23:34:04.982Z,9.97
2023-10-25T23:36:32.194Z,9.97
2023-10-25T23:38:59.281Z,9.94
2023-10-25T23:41:26.399Z,9.93
2023-10-25T23:43:53.400Z,9.91
2023-10-25T23:46:20.502Z,9.91
2023-10-25T23:48:47.635Z,9.90
2023-10-25T23:51:14.766Z,9.91
2023-10-25T23:53:42.056Z,9.91
2023-10-25T23:56:34.266Z,9.90
2023-10-25T23:58:56.132Z,9.89
